Retsil, Washington
Current Conditions -  °F | °C
As of 10:35 PM on Wednesday 26 Nov 2014 (Local Time) from KPWT Reporting Station
Broken Clouds Broken Clouds  
Wind Chill: 54°   Ceiling: 6000
Heat Index: 54°   Visibility: 10mi
Dew Point: 54°   Wind: 16mph
Humidity: 100%   Direction: 210°SSW
Pressure: 29.89"   Gusts: NA
Location:  47.53°N, 122.59°W
Report Text: KPWT 270635Z AUTO 21014KT 10SM SCT048 BKN060 12/12 A2989 RMK AO1 P0001
Loading
Personal Weather Stations






























Interactive Weather Map New forecast layout! Learn more

10-Day Weather Forecast

Advertisements
Track Severe Weather on mobile